Time;durP1;ratioP1;P1;durP2;ratioP2;P2;SDS_P1;SDS_P2;PMS_P1;PMS_P2;Temp;Humidity;BMP_temperature;BMP_pressure;BME280_temperature;BME280_humidity;BME280_pressure;Samples;Min_cycle;Max_cycle;Signal;HPM_P1;HPM_P2
2024/02/25 00:02:33;;;;;;;7.10;3.87;;;;;;;;;;6141599;29;20300;-60
2024/02/25 00:05:39;;;;;;;5.77;3.77;;;;;;;;;;6141462;29;20302;-60
2024/02/25 00:08:43;;;;;;;4.77;4.00;;;;;;;;;;6141055;29;20298;-60
2024/02/25 00:11:48;;;;;;;4.70;4.30;;;;;;;;;;6127333;29;20495;-60
2024/02/25 00:14:52;;;;;;;5.30;3.83;;;;;;;;;;6117451;29;20302;-60
2024/02/25 00:17:56;;;;;;;4.60;3.60;;;;;;;;;;6117834;29;20601;-60
2024/02/25 00:21:00;;;;;;;4.07;3.83;;;;;;;;;;6117340;29;20309;-60
2024/02/25 00:24:04;;;;;;;4.17;3.87;;;;;;;;;;6117203;29;20317;-60
2024/02/25 00:27:09;;;;;;;5.93;3.87;;;;;;;;;;6117659;29;20298;-60
2024/02/25 00:30:14;;;;;;;3.83;3.53;;;;;;;;;;6116121;29;20327;-60
2024/02/25 00:33:19;;;;;;;3.90;3.60;;;;;;;;;;6116721;29;20302;-59
2024/02/25 00:36:23;;;;;;;3.77;3.40;;;;;;;;;;6116826;29;20298;-60
2024/02/25 00:39:27;;;;;;;3.90;3.60;;;;;;;;;;6116899;29;20301;-60
2024/02/25 00:42:32;;;;;;;3.57;3.23;;;;;;;;;;6116944;29;20306;-60
2024/02/25 00:45:36;;;;;;;4.70;3.60;;;;;;;;;;6116150;29;20301;-60
2024/02/25 00:48:40;;;;;;;3.40;3.20;;;;;;;;;;6116732;29;20554;-61
2024/02/25 00:51:45;;;;;;;4.70;3.30;;;;;;;;;;6116986;29;20605;-60
2024/02/25 00:54:48;;;;;;;6.10;3.53;;;;;;;;;;6116080;29;20311;-60
2024/02/25 00:57:54;;;;;;;3.53;3.13;;;;;;;;;;6117079;29;20298;-60
2024/02/25 01:00:58;;;;;;;5.80;3.90;;;;;;;;;;6100507;29;20530;-60
2024/02/25 01:04:03;;;;;;;3.80;3.60;;;;;;;;;;6092865;29;20291;-60
2024/02/25 01:07:06;;;;;;;3.63;3.30;;;;;;;;;;6092280;29;20319;-60
2024/02/25 01:10:10;;;;;;;3.73;3.50;;;;;;;;;;6093083;29;20309;-60
2024/02/25 01:13:17;;;;;;;4.07;3.70;;;;;;;;;;6116698;29;20304;-60
2024/02/25 01:16:21;;;;;;;5.10;3.60;;;;;;;;;;6116022;29;20293;-60
2024/02/25 01:19:24;;;;;;;4.17;3.80;;;;;;;;;;6115967;29;20377;-60
2024/02/25 01:22:29;;;;;;;5.27;4.00;;;;;;;;;;6116191;29;20306;-60
2024/02/25 01:25:33;;;;;;;6.60;4.30;;;;;;;;;;6115759;29;20311;-60
2024/02/25 01:28:38;;;;;;;6.93;4.03;;;;;;;;;;6115915;29;20314;-60
2024/02/25 01:31:43;;;;;;;7.67;4.30;;;;;;;;;;6116383;29;20305;-60
2024/02/25 01:34:47;;;;;;;4.50;4.07;;;;;;;;;;6115635;29;20303;-60
2024/02/25 01:37:51;;;;;;;9.67;4.53;;;;;;;;;;6115359;29;20298;-61
2024/02/25 01:40:55;;;;;;;5.27;4.40;;;;;;;;;;6115520;29;20318;-60
2024/02/25 01:44:00;;;;;;;4.17;3.83;;;;;;;;;;6115612;29;20619;-60
2024/02/25 01:47:06;;;;;;;4.37;4.10;;;;;;;;;;6115836;29;20298;-60
2024/02/25 01:50:11;;;;;;;5.27;3.97;;;;;;;;;;6115740;29;20417;-60
2024/02/25 01:53:15;;;;;;;5.50;4.20;;;;;;;;;;6115793;29;20302;-60
2024/02/25 01:56:19;;;;;;;5.97;4.40;;;;;;;;;;6115272;29;20317;-60
2024/02/25 01:59:25;;;;;;;7.10;5.10;;;;;;;;;;6114895;29;20304;-60
2024/02/25 02:02:30;;;;;;;7.10;4.77;;;;;;;;;;6115661;29;20306;-60
2024/02/25 02:05:34;;;;;;;5.40;4.50;;;;;;;;;;6115234;29;20292;-60
2024/02/25 02:08:38;;;;;;;7.83;4.63;;;;;;;;;;6115002;29;20311;-60
2024/02/25 02:11:42;;;;;;;5.03;4.50;;;;;;;;;;6127135;29;20318;-60
2024/02/25 02:14:48;;;;;;;6.67;4.77;;;;;;;;;;6138329;29;20322;-60
2024/02/25 02:17:52;;;;;;;5.93;4.63;;;;;;;;;;6138549;29;20408;-60
2024/02/25 02:20:57;;;;;;;6.47;4.80;;;;;;;;;;6138366;29;20313;-60
2024/02/25 02:24:01;;;;;;;9.00;5.37;;;;;;;;;;6138149;29;20321;-60
2024/02/25 02:27:05;;;;;;;7.77;5.00;;;;;;;;;;6138493;29;20493;-60
2024/02/25 02:30:10;;;;;;;7.03;4.87;;;;;;;;;;6137866;29;20455;-60
2024/02/25 02:33:14;;;;;;;6.40;4.70;;;;;;;;;;6138662;29;20302;-60
2024/02/25 02:36:19;;;;;;;8.97;5.20;;;;;;;;;;6137996;29;20295;-60
2024/02/25 02:39:23;;;;;;;7.37;5.47;;;;;;;;;;6137678;29;20300;-60
2024/02/25 02:42:28;;;;;;;6.83;5.20;;;;;;;;;;6137869;29;20297;-60
2024/02/25 02:45:32;;;;;;;8.70;5.63;;;;;;;;;;6137765;29;20297;-60
2024/02/25 02:48:36;;;;;;;5.63;4.90;;;;;;;;;;6137771;29;20315;-60
2024/02/25 02:51:41;;;;;;;10.37;5.47;;;;;;;;;;6138096;29;20301;-60
2024/02/25 02:54:45;;;;;;;5.83;4.80;;;;;;;;;;6137847;29;20295;-59
2024/02/25 02:57:49;;;;;;;9.50;5.23;;;;;;;;;;6138143;29;20305;-59
2024/02/25 03:00:53;;;;;;;11.37;5.10;;;;;;;;;;6137710;29;20291;-60
2024/02/25 03:03:57;;;;;;;5.80;4.40;;;;;;;;;;6137825;29;20297;-60
2024/02/25 03:07:03;;;;;;;5.90;5.10;;;;;;;;;;6138186;29;20501;-60
2024/02/25 03:10:08;;;;;;;10.40;4.97;;;;;;;;;;6137357;29;20593;-60
2024/02/25 03:13:12;;;;;;;7.63;4.60;;;;;;;;;;6114254;29;20496;-60
2024/02/25 03:16:16;;;;;;;9.43;4.70;;;;;;;;;;6113937;29;20572;-60
2024/02/25 03:19:19;;;;;;;8.10;4.33;;;;;;;;;;6114059;29;20291;-60
2024/02/25 03:22:25;;;;;;;10.17;4.60;;;;;;;;;;6114414;29;20313;-60
2024/02/25 03:25:29;;;;;;;6.63;4.37;;;;;;;;;;6113893;29;20314;-59
2024/02/25 03:28:33;;;;;;;6.23;4.63;;;;;;;;;;6113700;29;20295;-60
2024/02/25 03:31:37;;;;;;;4.50;3.93;;;;;;;;;;6118428;29;20559;-59
2024/02/25 03:34:41;;;;;;;5.13;3.93;;;;;;;;;;6118159;29;20298;-59
2024/02/25 03:37:47;;;;;;;8.33;4.73;;;;;;;;;;6118845;29;20300;-59
2024/02/25 03:40:51;;;;;;;8.03;4.40;;;;;;;;;;6117474;29;20298;-60
2024/02/25 03:43:55;;;;;;;6.80;4.73;;;;;;;;;;6118084;29;20306;-59
2024/02/25 03:46:59;;;;;;;7.07;4.57;;;;;;;;;;6118602;29;20289;-60
2024/02/25 03:50:03;;;;;;;5.83;4.10;;;;;;;;;;6118165;29;20307;-59
2024/02/25 03:53:08;;;;;;;5.47;4.20;;;;;;;;;;6118536;29;20527;-59
2024/02/25 03:56:12;;;;;;;7.73;4.13;;;;;;;;;;6117948;29;20291;-59
2024/02/25 03:59:17;;;;;;;4.50;4.13;;;;;;;;;;6117293;29;20298;-59
2024/02/25 04:02:21;;;;;;;7.47;4.33;;;;;;;;;;6120413;29;20306;-60
2024/02/25 04:05:25;;;;;;;7.10;3.97;;;;;;;;;;6134717;29;20597;-60
2024/02/25 04:08:31;;;;;;;6.87;4.27;;;;;;;;;;6117488;29;20314;-60
2024/02/25 04:11:34;;;;;;;4.73;4.00;;;;;;;;;;6132849;29;20306;-60
2024/02/25 04:14:38;;;;;;;5.67;4.00;;;;;;;;;;6140815;29;20306;-59
2024/02/25 04:17:42;;;;;;;4.63;3.73;;;;;;;;;;6140875;29;20298;-59
2024/02/25 04:20:46;;;;;;;4.97;3.80;;;;;;;;;;6120749;29;20308;-59
2024/02/25 04:23:52;;;;;;;8.13;4.30;;;;;;;;;;6117032;29;20459;-59
2024/02/25 04:26:56;;;;;;;5.37;4.37;;;;;;;;;;6117495;29;20298;-59
2024/02/25 04:30:00;;;;;;;5.47;3.80;;;;;;;;;;6117164;29;20369;-59
2024/02/25 04:33:05;;;;;;;5.17;4.07;;;;;;;;;;6116895;29;20298;-59
2024/02/25 04:36:09;;;;;;;9.77;4.17;;;;;;;;;;6124174;29;20294;-59
2024/02/25 04:39:14;;;;;;;7.13;4.10;;;;;;;;;;6139747;29;20289;-59
2024/02/25 04:42:18;;;;;;;5.77;3.80;;;;;;;;;;6140747;29;20305;-59
2024/02/25 04:45:22;;;;;;;6.47;3.93;;;;;;;;;;6138220;29;20310;-59
2024/02/25 04:48:25;;;;;;;7.73;4.17;;;;;;;;;;6116459;29;20352;-59
2024/02/25 04:51:29;;;;;;;7.37;4.30;;;;;;;;;;6116900;29;20295;-59
2024/02/25 04:54:35;;;;;;;7.67;3.70;;;;;;;;;;6116713;29;20390;-59
2024/02/25 04:57:39;;;;;;;4.47;4.07;;;;;;;;;;6116082;29;20301;-59
2024/02/25 05:00:44;;;;;;;7.87;3.90;;;;;;;;;;6116826;29;20299;-59
2024/02/25 05:03:48;;;;;;;4.10;3.80;;;;;;;;;;6115986;29;20307;-59
2024/02/25 05:06:51;;;;;;;10.43;4.30;;;;;;;;;;6117055;29;20310;-59
2024/02/25 05:09:57;;;;;;;6.77;4.13;;;;;;;;;;6116056;29;20298;-59
2024/02/25 05:13:01;;;;;;;6.20;4.40;;;;;;;;;;6115888;29;20310;-59
2024/02/25 05:16:07;;;;;;;8.53;4.43;;;;;;;;;;6116414;29;20303;-59
2024/02/25 05:19:10;;;;;;;8.40;5.07;;;;;;;;;;6115746;29;20306;-59
2024/02/25 05:22:14;;;;;;;6.60;4.73;;;;;;;;;;6116395;29;20292;-58
2024/02/25 05:25:21;;;;;;;7.47;5.47;;;;;;;;;;6115821;29;20303;-59
2024/02/25 05:28:25;;;;;;;8.10;5.23;;;;;;;;;;6115693;29;20485;-59
2024/02/25 05:31:28;;;;;;;5.97;5.43;;;;;;;;;;6116067;29;20294;-59
2024/02/25 05:34:32;;;;;;;7.97;6.17;;;;;;;;;;6115582;29;20302;-59
2024/02/25 05:37:36;;;;;;;9.13;5.73;;;;;;;;;;6115167;29;20309;-59
2024/02/25 05:40:42;;;;;;;11.83;6.00;;;;;;;;;;6116351;29;20305;-59
2024/02/25 05:43:46;;;;;;;13.73;5.87;;;;;;;;;;6115725;29;20306;-60
2024/02/25 05:46:50;;;;;;;10.70;6.20;;;;;;;;;;6115884;29;20502;-59
2024/02/25 05:49:55;;;;;;;10.70;6.27;;;;;;;;;;6113669;29;20294;-59
2024/02/25 05:53:01;;;;;;;8.67;5.90;;;;;;;;;;6114968;29;20299;-59
2024/02/25 05:56:06;;;;;;;10.90;6.13;;;;;;;;;;6115940;29;20255;-60
2024/02/25 05:59:10;;;;;;;9.63;6.50;;;;;;;;;;6114988;29;20303;-59
2024/02/25 06:02:14;;;;;;;8.23;6.23;;;;;;;;;;6115410;29;20301;-59
2024/02/25 06:05:19;;;;;;;7.70;6.27;;;;;;;;;;6114962;29;20377;-59
2024/02/25 06:08:23;;;;;;;6.87;6.30;;;;;;;;;;6114570;29;20606;-59
2024/02/25 06:11:28;;;;;;;8.10;6.47;;;;;;;;;;6131688;29;20304;-59
2024/02/25 06:14:32;;;;;;;8.17;6.30;;;;;;;;;;6138860;29;20304;-59
2024/02/25 06:17:36;;;;;;;9.83;6.13;;;;;;;;;;6138450;29;20302;-60
2024/02/25 06:20:40;;;;;;;7.40;6.60;;;;;;;;;;6138700;29;20321;-60
2024/02/25 06:23:44;;;;;;;12.47;6.60;;;;;;;;;;6138013;29;20303;-60
2024/02/25 06:26:49;;;;;;;11.20;6.33;;;;;;;;;;6138815;29;20599;-60
2024/02/25 06:29:53;;;;;;;10.40;5.73;;;;;;;;;;6138282;29;20303;-60
2024/02/25 06:32:57;;;;;;;8.23;5.47;;;;;;;;;;6138209;29;20297;-60
2024/02/25 06:36:01;;;;;;;10.00;5.87;;;;;;;;;;6138609;29;20298;-60
2024/02/25 06:39:06;;;;;;;6.03;5.43;;;;;;;;;;6137984;29;20302;-60
2024/02/25 06:42:11;;;;;;;10.30;6.10;;;;;;;;;;6138551;29;20290;-60
2024/02/25 06:45:15;;;;;;;8.23;5.90;;;;;;;;;;6138136;29;20463;-60
2024/02/25 06:48:19;;;;;;;6.17;5.60;;;;;;;;;;6137647;29;20627;-61
2024/02/25 06:51:26;;;;;;;9.07;5.17;;;;;;;;;;6138579;29;20306;-60
2024/02/25 06:54:31;;;;;;;6.83;5.43;;;;;;;;;;6137774;29;20306;-60
2024/02/25 06:57:37;;;;;;;8.33;5.57;;;;;;;;;;6137806;29;20293;-60
2024/02/25 07:00:40;;;;;;;8.90;6.17;;;;;;;;;;6138763;29;20302;-60
2024/02/25 07:03:44;;;;;;;11.80;5.87;;;;;;;;;;6137947;29;20291;-61
2024/02/25 07:06:48;;;;;;;7.57;5.70;;;;;;;;;;6142957;29;20297;-60
2024/02/25 07:09:56;;;;;;;11.67;6.13;;;;;;;;;;6138720;29;20619;-60
2024/02/25 07:13:01;;;;;;;9.23;5.73;;;;;;;;;;6118832;29;20306;-59
2024/02/25 07:16:06;;;;;;;11.10;6.00;;;;;;;;;;6119448;29;20299;-59
2024/02/25 07:19:10;;;;;;;9.17;5.60;;;;;;;;;;6119068;29;20374;-60
2024/02/25 07:22:14;;;;;;;6.67;5.77;;;;;;;;;;6118658;29;20311;-59
2024/02/25 07:25:18;;;;;;;7.80;5.67;;;;;;;;;;6118457;29;20494;-59
2024/02/25 07:28:24;;;;;;;6.63;5.80;;;;;;;;;;6118295;29;20303;-60
2024/02/25 07:31:28;;;;;;;6.83;5.80;;;;;;;;;;6118747;29;20302;-60
2024/02/25 07:34:32;;;;;;;11.27;5.70;;;;;;;;;;6118479;29;20298;-60
2024/02/25 07:37:36;;;;;;;9.17;6.40;;;;;;;;;;6118500;29;20309;-60
2024/02/25 07:40:40;;;;;;;6.27;5.50;;;;;;;;;;6118841;29;20307;-60
2024/02/25 07:43:45;;;;;;;6.50;5.63;;;;;;;;;;6118005;29;20294;-60
2024/02/25 07:46:49;;;;;;;5.80;5.20;;;;;;;;;;6118164;29;20311;-60
2024/02/25 07:49:52;;;;;;;9.90;5.70;;;;;;;;;;6117236;29;20298;-60
2024/02/25 07:52:56;;;;;;;14.87;6.20;;;;;;;;;;6117594;29;20468;-61
2024/02/25 07:56:00;;;;;;;9.63;5.63;;;;;;;;;;6118363;29;20248;-60
2024/02/25 07:59:05;;;;;;;11.20;5.37;;;;;;;;;;6118022;29;20295;-60
2024/02/25 08:02:09;;;;;;;9.03;5.10;;;;;;;;;;6118530;29;20252;-60
2024/02/25 08:05:13;;;;;;;8.90;5.13;;;;;;;;;;6117604;29;20309;-60
2024/02/25 08:08:18;;;;;;;9.23;4.87;;;;;;;;;;6117533;29;20297;-60
2024/02/25 08:11:22;;;;;;;10.90;5.23;;;;;;;;;;6133704;29;20334;-60
2024/02/25 08:14:27;;;;;;;9.30;5.20;;;;;;;;;;6141074;29;20329;-60
2024/02/25 08:17:31;;;;;;;6.93;5.07;;;;;;;;;;6140216;29;20301;-60
2024/02/25 08:20:35;;;;;;;6.20;5.27;;;;;;;;;;6141233;29;20302;-60
2024/02/25 08:23:39;;;;;;;6.87;5.10;;;;;;;;;;6141025;29;20310;-60
2024/02/25 08:26:43;;;;;;;7.50;5.27;;;;;;;;;;6141220;29;20311;-59
2024/02/25 08:29:48;;;;;;;6.60;5.20;;;;;;;;;;6140771;29;20298;-59
2024/02/25 08:32:54;;;;;;;10.57;4.97;;;;;;;;;;6140628;29;20310;-59
2024/02/25 08:35:59;;;;;;;6.90;5.17;;;;;;;;;;6140986;29;20306;-59
2024/02/25 08:39:05;;;;;;;6.30;5.30;;;;;;;;;;6140437;29;20295;-59
2024/02/25 08:42:08;;;;;;;5.63;5.10;;;;;;;;;;6140876;29;20294;-59
2024/02/25 08:45:14;;;;;;;5.63;5.23;;;;;;;;;;6140326;29;20438;-59
2024/02/25 08:48:18;;;;;;;8.90;5.70;;;;;;;;;;6139837;29;20303;-59
2024/02/25 08:51:22;;;;;;;7.73;5.37;;;;;;;;;;6140992;29;20481;-59
2024/02/25 08:54:26;;;;;;;6.00;5.43;;;;;;;;;;6140591;29;20385;-59
2024/02/25 08:57:32;;;;;;;10.67;5.13;;;;;;;;;;6140324;29;20299;-59
2024/02/25 09:00:37;;;;;;;6.43;4.73;;;;;;;;;;6140867;29;20309;-59
2024/02/25 09:03:41;;;;;;;5.40;5.00;;;;;;;;;;6140183;29;20492;-59
2024/02/25 09:06:55;;;;;;;6.77;4.47;;;;;;;;;;6140419;29;20303;-59
2024/02/25 09:09:59;;;;;;;7.80;5.27;;;;;;;;;;6134816;29;20483;-59
2024/02/25 09:13:04;;;;;;;5.97;5.00;;;;;;;;;;6116365;29;20475;-60
2024/02/25 09:16:09;;;;;;;6.93;5.10;;;;;;;;;;6117106;29;20303;-60
2024/02/25 09:19:13;;;;;;;5.07;4.57;;;;;;;;;;6115911;29;20304;-60
2024/02/25 09:22:17;;;;;;;5.10;4.63;;;;;;;;;;6116582;29;20299;-60
2024/02/25 09:25:21;;;;;;;7.80;5.03;;;;;;;;;;6115567;29;20302;-60
2024/02/25 09:28:25;;;;;;;6.80;5.10;;;;;;;;;;6115007;29;20303;-60
2024/02/25 09:31:30;;;;;;;5.23;4.80;;;;;;;;;;6116170;29;20296;-60
2024/02/25 09:34:34;;;;;;;6.57;4.57;;;;;;;;;;6115451;29;20295;-60
2024/02/25 09:37:38;;;;;;;4.53;4.23;;;;;;;;;;6115465;29;20298;-60
2024/02/25 09:40:41;;;;;;;5.97;4.40;;;;;;;;;;6115814;29;20588;-60
2024/02/25 09:43:45;;;;;;;5.00;4.20;;;;;;;;;;6115619;29;20303;-59
2024/02/25 09:46:51;;;;;;;6.47;4.80;;;;;;;;;;6115983;29;20315;-60
2024/02/25 09:49:55;;;;;;;4.60;4.20;;;;;;;;;;6114604;29;20302;-60
2024/02/25 09:52:59;;;;;;;4.38;4.18;;;;;;;;;;6115134;29;20308;-60
2024/02/25 09:56:03;;;;;;;4.00;3.80;;;;;;;;;;6115772;29;20240;-59
2024/02/25 09:59:07;;;;;;;4.70;4.20;;;;;;;;;;6115156;29;20315;-59
2024/02/25 10:02:13;;;;;;;7.40;4.00;;;;;;;;;;6115679;29;20446;-59
2024/02/25 10:05:19;;;;;;;4.28;4.07;;;;;;;;;;6114946;29;20303;-59
2024/02/25 10:08:23;;;;;;;4.03;3.70;;;;;;;;;;6114591;29;20299;-59
2024/02/25 10:11:28;;;;;;;4.07;3.95;;;;;;;;;;6131297;29;20389;-60
2024/02/25 10:14:32;;;;;;;3.90;3.70;;;;;;;;;;6138582;29;20350;-60
2024/02/25 10:17:38;;;;;;;3.90;3.70;;;;;;;;;;6138335;29;20291;-60
2024/02/25 10:20:42;;;;;;;4.07;3.77;;;;;;;;;;6139186;29;20322;-59
2024/02/25 10:23:46;;;;;;;4.00;3.70;;;;;;;;;;6138720;29;20307;-61
2024/02/25 10:26:50;;;;;;;3.75;3.60;;;;;;;;;;6138817;29;20304;-61
2024/02/25 10:29:54;;;;;;;3.83;3.53;;;;;;;;;;6138749;29;20302;-59
2024/02/25 10:33:13;;;;;;;4.33;3.73;;;;;;;;;;6138304;29;20298;-59
2024/02/25 10:36:19;;;;;;;3.30;3.20;;;;;;;;;;6138807;29;20323;-59
2024/02/25 10:39:25;;;;;;;3.60;3.50;;;;;;;;;;6138062;29;20298;-59
2024/02/25 10:42:30;;;;;;;3.70;3.40;;;;;;;;;;6138035;29;20335;-59
2024/02/25 10:45:34;;;;;;;4.00;3.60;;;;;;;;;;6138294;29;20299;-60
2024/02/25 10:48:40;;;;;;;3.30;3.20;;;;;;;;;;6138301;29;20298;-59
2024/02/25 10:51:45;;;;;;;3.47;3.20;;;;;;;;;;6138690;29;20294;-60
2024/02/25 10:54:50;;;;;;;3.60;3.40;;;;;;;;;;6138115;29;20540;-60
2024/02/25 10:57:54;;;;;;;3.95;3.50;;;;;;;;;;6137965;29;20467;-60
2024/02/25 11:00:58;;;;;;;4.23;3.17;;;;;;;;;;6138311;29;20291;-59
2024/02/25 11:04:04;;;;;;;3.17;3.07;;;;;;;;;;6137769;29;20303;-60
2024/02/25 11:07:09;;;;;;;3.70;3.00;;;;;;;;;;6138681;29;20299;-61
2024/02/25 11:10:19;;;;;;;3.10;2.85;;;;;;;;;;6131200;29;20464;-60
2024/02/25 11:13:23;;;;;;;3.23;2.93;;;;;;;;;;6114709;29;20536;-61
2024/02/25 11:16:31;;;;;;;3.90;3.10;;;;;;;;;;6115280;29;20296;-60
2024/02/25 11:19:37;;;;;;;3.83;3.47;;;;;;;;;;6114401;29;20479;-60
2024/02/25 11:22:43;;;;;;;3.40;3.30;;;;;;;;;;6114505;29;20291;-61
2024/02/25 11:25:46;;;;;;;3.15;3.05;;;;;;;;;;6114806;29;20299;-61
2024/02/25 11:29:18;;;;;;;3.38;3.10;;;;;;;;;;6114176;29;20307;-60
2024/02/25 11:32:32;;;;;;;3.53;3.22;;;;;;;;;;6113469;29;20295;-61
2024/02/25 11:35:38;;;;;;;3.45;3.15;;;;;;;;;;6114728;29;20352;-60
2024/02/25 11:38:45;;;;;;;3.08;2.88;;;;;;;;;;6112910;29;20300;-61
2024/02/25 11:41:50;;;;;;;3.67;3.22;;;;;;;;;;6114517;29;20291;-61
2024/02/25 11:44:54;;;;;;;4.45;3.30;;;;;;;;;;6114330;29;20299;-61
2024/02/25 11:47:58;;;;;;;3.28;3.00;;;;;;;;;;6114019;29;20296;-60
2024/02/25 11:51:04;;;;;;;7.70;3.40;;;;;;;;;;6116157;29;20307;-60
2024/02/25 11:54:08;;;;;;;3.63;3.33;;;;;;;;;;6118175;29;20316;-60
2024/02/25 11:57:12;;;;;;;3.58;3.20;;;;;;;;;;6118303;29;20300;-60
2024/02/25 12:00:17;;;;;;;4.00;2.70;;;;;;;;;;6117607;29;20316;-60
2024/02/25 12:03:21;;;;;;;3.00;2.80;;;;;;;;;;6117184;29;20591;-60
2024/02/25 12:06:28;;;;;;;3.17;3.03;;;;;;;;;;6118630;29;20295;-60
2024/02/25 12:09:32;;;;;;;2.92;2.70;;;;;;;;;;6119006;29;20304;-60
2024/02/25 12:12:36;;;;;;;3.70;3.05;;;;;;;;;;6141287;29;20456;-61
2024/02/25 12:15:42;;;;;;;3.00;2.80;;;;;;;;;;6141816;29;20298;-59
2024/02/25 12:18:47;;;;;;;3.40;3.10;;;;;;;;;;6141349;29;20307;-59
2024/02/25 12:21:54;;;;;;;3.20;2.95;;;;;;;;;;6141637;29;20322;-60
2024/02/25 12:24:58;;;;;;;2.67;2.60;;;;;;;;;;6141125;29;20299;-60
2024/02/25 12:28:09;;;;;;;3.00;2.88;;;;;;;;;;6140691;29;20302;-61
2024/02/25 12:31:13;;;;;;;3.47;2.90;;;;;;;;;;6141071;29;20303;-61
2024/02/25 12:34:17;;;;;;;4.85;3.15;;;;;;;;;;6140720;29;20456;-59
2024/02/25 12:37:23;;;;;;;3.47;3.20;;;;;;;;;;6141292;29;20375;-61
2024/02/25 12:40:27;;;;;;;3.05;2.95;;;;;;;;;;6141528;29;20307;-59
2024/02/25 12:43:31;;;;;;;3.25;3.05;;;;;;;;;;6140914;29;20298;-60
2024/02/25 12:46:35;;;;;;;3.72;3.42;;;;;;;;;;6140977;29;20311;-60
2024/02/25 12:49:39;;;;;;;3.05;2.88;;;;;;;;;;6140524;29;20378;-60
2024/02/25 12:52:44;;;;;;;3.08;2.97;;;;;;;;;;6140610;29;20290;-60
2024/02/25 12:55:48;;;;;;;3.28;3.08;;;;;;;;;;6140893;29;20595;-60
2024/02/25 12:58:52;;;;;;;4.47;2.80;;;;;;;;;;6138923;29;20303;-60
2024/02/25 13:01:56;;;;;;;4.32;2.95;;;;;;;;;;6116660;29;20325;-60
2024/02/25 13:05:00;;;;;;;2.95;2.83;;;;;;;;;;6093859;29;20297;-60
2024/02/25 13:08:06;;;;;;;4.95;2.40;;;;;;;;;;6093271;29;20308;-60
2024/02/25 13:11:12;;;;;;;3.97;2.78;;;;;;;;;;6122159;29;20247;-61
2024/02/25 13:14:16;;;;;;;2.50;2.40;;;;;;;;;;6140981;29;20420;-61
2024/02/25 13:17:20;;;;;;;6.53;3.10;;;;;;;;;;6140053;29;20294;-60
2024/02/25 13:20:24;;;;;;;3.15;2.70;;;;;;;;;;6140078;29;20450;-60
2024/02/25 13:23:30;;;;;;;3.25;2.95;;;;;;;;;;6140194;29;20295;-59
2024/02/25 13:26:34;;;;;;;6.57;3.10;;;;;;;;;;6140302;29;20302;-59
2024/02/25 13:29:38;;;;;;;2.97;2.88;;;;;;;;;;6139697;29;20302;-60
2024/02/25 13:32:42;;;;;;;2.97;2.72;;;;;;;;;;6139164;29;20296;-60
2024/02/25 13:35:46;;;;;;;3.28;2.95;;;;;;;;;;6139771;29;20302;-59
2024/02/25 13:38:52;;;;;;;3.28;3.10;;;;;;;;;;6139661;29;20583;-61
2024/02/25 13:41:56;;;;;;;3.10;2.97;;;;;;;;;;6139842;29;20473;-59
2024/02/25 13:44:59;;;;;;;3.38;3.17;;;;;;;;;;6138988;29;20597;-59
2024/02/25 13:48:06;;;;;;;3.05;2.85;;;;;;;;;;6139140;29;20395;-61
2024/02/25 13:51:10;;;;;;;3.95;3.13;;;;;;;;;;6139407;29;20307;-59
2024/02/25 13:54:16;;;;;;;3.28;2.97;;;;;;;;;;6139373;29;20401;-59
2024/02/25 13:57:21;;;;;;;3.50;3.20;;;;;;;;;;6139465;29;20595;-62
2024/02/25 14:00:25;;;;;;;2.90;2.80;;;;;;;;;;6139380;29;20370;-59
2024/02/25 14:03:29;;;;;;;3.63;3.17;;;;;;;;;;6139103;29;20291;-60
2024/02/25 14:06:33;;;;;;;4.28;3.15;;;;;;;;;;6139668;29;20596;-60
2024/02/25 14:09:38;;;;;;;3.13;3.10;;;;;;;;;;6137152;29;20319;-60
2024/02/25 14:12:42;;;;;;;3.92;3.10;;;;;;;;;;6115354;29;20296;-60
2024/02/25 14:15:46;;;;;;;3.38;3.20;;;;;;;;;;6115761;29;20315;-60
2024/02/25 14:18:50;;;;;;;3.28;3.08;;;;;;;;;;6114877;29;20587;-60
2024/02/25 14:21:54;;;;;;;2.92;2.85;;;;;;;;;;6115519;29;20304;-59
2024/02/25 14:25:00;;;;;;;4.72;3.13;;;;;;;;;;6114942;29;20299;-59
2024/02/25 14:28:04;;;;;;;3.60;3.40;;;;;;;;;;6114953;29;20287;-59
2024/02/25 14:31:08;;;;;;;3.42;3.22;;;;;;;;;;6115162;29;20299;-59
2024/02/25 14:34:12;;;;;;;3.30;3.13;;;;;;;;;;6114394;29;20303;-60
2024/02/25 14:37:16;;;;;;;3.67;3.20;;;;;;;;;;6115307;29;20299;-60
2024/02/25 14:40:22;;;;;;;3.08;2.97;;;;;;;;;;6114880;29;20378;-60
2024/02/25 14:43:26;;;;;;;4.15;3.95;;;;;;;;;;6114779;29;20299;-59
2024/02/25 14:46:30;;;;;;;3.42;3.13;;;;;;;;;;6115202;29;20303;-59
2024/02/25 14:49:33;;;;;;;7.22;3.90;;;;;;;;;;6114605;29;20592;-59
2024/02/25 14:52:37;;;;;;;3.53;3.30;;;;;;;;;;6114566;29;20292;-59
2024/02/25 14:55:43;;;;;;;3.80;3.42;;;;;;;;;;6114905;29;20299;-59
2024/02/25 14:58:49;;;;;;;3.70;3.40;;;;;;;;;;6113646;29;20300;-59
2024/02/25 15:01:52;;;;;;;3.45;3.25;;;;;;;;;;6114356;29;20279;-61
2024/02/25 15:04:56;;;;;;;3.28;3.08;;;;;;;;;;6114660;29;20291;-60
2024/02/25 15:08:00;;;;;;;3.70;3.40;;;;;;;;;;6114613;29;20455;-60
2024/02/25 15:11:05;;;;;;;4.10;3.40;;;;;;;;;;6127791;29;20471;-60
2024/02/25 15:14:09;;;;;;;4.72;3.60;;;;;;;;;;6137584;29;20299;-60
2024/02/25 15:17:14;;;;;;;8.27;3.70;;;;;;;;;;6138531;29;20290;-60
2024/02/25 15:20:18;;;;;;;3.75;3.45;;;;;;;;;;6138072;29;20299;-60
2024/02/25 15:23:22;;;;;;;5.73;3.20;;;;;;;;;;6137937;29;20614;-60
2024/02/25 15:26:27;;;;;;;3.70;3.20;;;;;;;;;;6140892;29;20298;-59
2024/02/25 15:29:33;;;;;;;3.50;3.30;;;;;;;;;;6142353;29;20483;-59
2024/02/25 15:32:37;;;;;;;3.60;3.30;;;;;;;;;;6141884;29;20719;-60
2024/02/25 15:35:41;;;;;;;3.27;3.00;;;;;;;;;;6142363;29;20298;-59
2024/02/25 15:38:46;;;;;;;3.37;3.23;;;;;;;;;;6141790;29;20579;-59
2024/02/25 15:41:53;;;;;;;3.50;3.30;;;;;;;;;;6142800;29;20299;-60
2024/02/25 15:44:58;;;;;;;6.17;3.60;;;;;;;;;;6141302;29;20295;-61
2024/02/25 15:48:02;;;;;;;6.70;3.43;;;;;;;;;;6141648;29;20307;-60
2024/02/25 15:51:06;;;;;;;3.70;3.50;;;;;;;;;;6142616;29;20568;-59
2024/02/25 15:54:22;;;;;;;7.67;3.70;;;;;;;;;;6141500;29;20595;-59
2024/02/25 15:57:28;;;;;;;3.90;3.40;;;;;;;;;;6141373;29;20588;-60
2024/02/25 16:00:32;;;;;;;8.17;3.90;;;;;;;;;;6141999;29;20374;-59
2024/02/25 16:03:37;;;;;;;5.10;3.57;;;;;;;;;;6141688;29;20294;-59
2024/02/25 16:06:42;;;;;;;4.27;3.47;;;;;;;;;;6141925;29;20295;-58
2024/02/25 16:09:46;;;;;;;5.43;3.67;;;;;;;;;;6138109;29;20304;-59
2024/02/25 16:12:51;;;;;;;5.27;3.57;;;;;;;;;;6117886;29;20287;-60
2024/02/25 16:15:56;;;;;;;5.20;3.77;;;;;;;;;;6118372;29;20320;-59
2024/02/25 16:19:00;;;;;;;7.37;4.10;;;;;;;;;;6117992;29;20311;-59
2024/02/25 16:22:04;;;;;;;3.80;3.33;;;;;;;;;;6118002;29;20302;-59
2024/02/25 16:25:10;;;;;;;3.57;3.27;;;;;;;;;;6117600;29;20508;-59
2024/02/25 16:28:16;;;;;;;3.87;3.37;;;;;;;;;;6117129;29;20311;-61
2024/02/25 16:31:20;;;;;;;3.93;3.50;;;;;;;;;;6117994;29;20291;-60
2024/02/25 16:34:24;;;;;;;4.00;3.53;;;;;;;;;;6117063;29;20298;-60
2024/02/25 16:37:28;;;;;;;5.60;3.60;;;;;;;;;;6116342;29;20299;-60
2024/02/25 16:40:32;;;;;;;4.80;3.50;;;;;;;;;;6117590;29;20298;-60
2024/02/25 16:43:39;;;;;;;3.90;3.60;;;;;;;;;;6116653;29;20303;-60
2024/02/25 16:46:43;;;;;;;7.17;3.30;;;;;;;;;;6115528;29;20502;-60
2024/02/25 16:49:47;;;;;;;6.17;3.50;;;;;;;;;;6116539;29;20611;-60
2024/02/25 16:52:50;;;;;;;6.87;4.10;;;;;;;;;;6116708;29;20373;-59
2024/02/25 16:55:55;;;;;;;8.17;3.90;;;;;;;;;;6116250;29;20278;-59
2024/02/25 16:59:03;;;;;;;6.57;3.90;;;;;;;;;;6116773;29;20298;-61
2024/02/25 17:02:07;;;;;;;3.43;3.00;;;;;;;;;;6116992;29;20255;-61
2024/02/25 17:05:10;;;;;;;7.83;4.20;;;;;;;;;;6116449;29;20306;-60
2024/02/25 17:08:15;;;;;;;5.10;3.83;;;;;;;;;;6116662;29;20347;-60
2024/02/25 17:11:19;;;;;;;4.90;3.70;;;;;;;;;;6132252;29;20295;-60
2024/02/25 17:14:24;;;;;;;8.13;3.90;;;;;;;;;;6140344;29;20461;-60
2024/02/25 17:17:28;;;;;;;19.70;6.23;;;;;;;;;;6140222;29;20302;-61
2024/02/25 17:20:32;;;;;;;5.70;3.87;;;;;;;;;;6140746;29;20306;-61
2024/02/25 17:23:38;;;;;;;4.73;3.70;;;;;;;;;;6140303;29;20307;-60
2024/02/25 17:26:41;;;;;;;4.00;3.70;;;;;;;;;;6140405;29;20399;-60
2024/02/25 17:29:49;;;;;;;5.20;3.87;;;;;;;;;;6140082;29;20437;-61
2024/02/25 17:32:54;;;;;;;6.07;4.17;;;;;;;;;;6139368;29;20325;-59
2024/02/25 17:35:58;;;;;;;5.30;3.83;;;;;;;;;;6138697;29;20307;-59
2024/02/25 17:39:02;;;;;;;4.23;3.60;;;;;;;;;;6139375;29;20306;-59
2024/02/25 17:42:06;;;;;;;5.37;4.37;;;;;;;;;;6139781;29;20302;-59
2024/02/25 17:45:12;;;;;;;5.90;3.63;;;;;;;;;;6138950;29;20305;-60
2024/02/25 17:48:17;;;;;;;5.33;3.80;;;;;;;;;;6138049;29;20302;-60
2024/02/25 17:51:21;;;;;;;7.07;3.87;;;;;;;;;;6139498;29;20582;-60
2024/02/25 17:54:26;;;;;;;6.50;3.50;;;;;;;;;;6138873;29;20353;-60
2024/02/25 17:57:31;;;;;;;5.80;3.63;;;;;;;;;;6138489;29;20302;-62
2024/02/25 18:00:36;;;;;;;6.60;4.70;;;;;;;;;;6139290;29;20310;-60
2024/02/25 18:03:41;;;;;;;8.63;4.60;;;;;;;;;;6138627;29;20317;-60
2024/02/25 18:06:44;;;;;;;6.43;4.60;;;;;;;;;;6139131;29;20310;-60
2024/02/25 18:09:48;;;;;;;10.37;5.30;;;;;;;;;;6135374;29;20303;-60
2024/02/25 18:12:52;;;;;;;6.33;4.50;;;;;;;;;;6115062;29;20302;-60
2024/02/25 18:15:58;;;;;;;8.33;4.17;;;;;;;;;;6115591;29;20308;-60
2024/02/25 18:19:02;;;;;;;6.30;4.13;;;;;;;;;;6114953;29;20302;-60
2024/02/25 18:22:05;;;;;;;9.20;4.27;;;;;;;;;;6115533;29;20326;-60
2024/02/25 18:25:09;;;;;;;5.27;4.73;;;;;;;;;;6114849;29;20305;-61
2024/02/25 18:28:13;;;;;;;6.00;4.40;;;;;;;;;;6114795;29;20283;-59